createdAt,value
2016-04-09T00:00:19.115Z,2
2016-04-09T00:03:35.140Z,2
2016-04-09T00:06:36.180Z,1
2016-04-09T00:09:46.142Z,5
2016-04-09T00:12:54.477Z,5
2016-04-09T00:16:04.783Z,5
2016-04-09T00:19:16.805Z,5
2016-04-09T00:22:34.099Z,5
2016-04-09T00:25:35.199Z,5
2016-04-09T00:28:46.786Z,5
2016-04-09T00:31:58.747Z,5
2016-04-09T00:35:10.677Z,5
2016-04-09T00:38:22.529Z,5
2016-04-09T00:41:34.305Z,5
2016-04-09T00:44:46.048Z,5
2016-04-09T00:47:55.603Z,5
2016-04-09T00:51:05.767Z,5
2016-04-09T00:54:15.431Z,5
2016-04-09T00:57:33.474Z,5
2016-04-09T01:00:34.623Z,5
2016-04-09T01:03:46.676Z,5
2016-04-09T01:06:58.388Z,5
2016-04-09T01:10:10.677Z,5
2016-04-09T01:13:18.905Z,5
2016-04-09T01:16:35.258Z,5
2016-04-09T01:19:35.282Z,5
2016-04-09T01:22:45.650Z,5
2016-04-09T01:25:54.908Z,5
2016-04-09T01:29:06.276Z,5
2016-04-09T01:32:18.267Z,5
2016-04-09T01:35:36.404Z,5
2016-04-09T01:38:37.418Z,5
2016-04-09T01:41:47.879Z,5
2016-04-09T01:44:59.870Z,5
2016-04-09T01:48:12.036Z,5
2016-04-09T01:51:22.653Z,5
2016-04-09T01:54:34.398Z,5
2016-04-09T01:57:46.437Z,5
2016-04-09T02:00:58.243Z,5
2016-04-09T02:04:06.626Z,5
2016-04-09T02:07:18.352Z,5
2016-04-09T02:10:36.144Z,5
2016-04-09T02:13:37.058Z,5
2016-04-09T02:16:48.676Z,5
2016-04-09T02:19:56.512Z,5
2016-04-09T02:23:08.223Z,5
2016-04-09T02:26:18.075Z,5
2016-04-09T02:29:32.696Z,5
2016-04-09T02:32:33.562Z,5
2016-04-09T02:35:45.101Z,5
2016-04-09T02:38:56.095Z,5
2016-04-09T02:42:07.993Z,5
2016-04-09T02:45:19.861Z,5
2016-04-09T02:48:37.715Z,5
2016-04-09T02:51:38.583Z,5
2016-04-09T02:54:50.575Z,5
2016-04-09T02:58:02.599Z,5
2016-04-09T03:01:14.247Z,5
2016-04-09T03:04:22.552Z,5
2016-04-09T03:07:36.860Z,5
2016-04-09T03:10:37.696Z,5
2016-04-09T03:13:47.110Z,5
2016-04-09T03:16:55.587Z,5
2016-04-09T03:20:07.189Z,5
2016-04-09T03:23:15.416Z,5
2016-04-09T03:26:32.770Z,5
2016-04-09T03:29:39.513Z,5
2016-04-09T03:32:40.193Z,5
2016-04-09T03:35:50.639Z,5
2016-04-09T03:39:00.819Z,5
2016-04-09T03:42:12.389Z,5
2016-04-09T03:45:20.553Z,6
2016-04-09T03:48:38.236Z,7
2016-04-09T03:51:38.916Z,7
2016-04-09T03:54:50.642Z,10
2016-04-09T03:58:02.182Z,13
2016-04-09T04:01:13.815Z,14
2016-04-09T04:04:31.654Z,22
2016-04-09T04:07:38.334Z,34
2016-04-09T04:10:38.842Z,50
2016-04-09T04:13:47.632Z,73
2016-04-09T04:16:59.545Z,100
2016-04-09T04:20:11.241Z,131
2016-04-09T04:23:19.920Z,166
2016-04-09T04:26:37.650Z,204
2016-04-09T04:29:38.269Z,243
2016-04-09T04:32:49.713Z,290
2016-04-09T04:36:01.315Z,349
2016-04-09T04:39:11.433Z,422
2016-04-09T04:42:23.066Z,509
2016-04-09T04:45:40.045Z,608
2016-04-09T04:48:40.740Z,728
2016-04-09T04:51:50.968Z,863
2016-04-09T04:55:00.413Z,1005
2016-04-09T04:58:09.093Z,1147
2016-04-09T05:01:19.413Z,1299
2016-04-09T05:04:37.128Z,1472
2016-04-09T05:07:37.995Z,1647
2016-04-09T05:10:46.924Z,1821
2016-04-09T05:13:58.870Z,2006
2016-04-09T05:17:10.863Z,2189
2016-04-09T05:20:22.870Z,2379
2016-04-09T05:23:34.756Z,2571
2016-04-09T05:26:46.062Z,2797
2016-04-09T05:29:55.555Z,3023
2016-04-09T05:33:05.266Z,3269
2016-04-09T05:36:17.335Z,3465
2016-04-09T05:39:31.925Z,2775
2016-04-09T05:42:39.073Z,3090
2016-04-09T05:45:40.378Z,3863
2016-04-09T05:48:52.558Z,4372
2016-04-09T05:52:04.800Z,4776
2016-04-09T05:55:16.684Z,4197
2016-04-09T05:58:34.914Z,4667
2016-04-09T06:01:36.297Z,4834
2016-04-09T06:04:48.132Z,4928
2016-04-09T06:08:00.828Z,5490
2016-04-09T06:11:13.493Z,5671
2016-04-09T06:14:32.206Z,3658
2016-04-09T06:17:40.246Z,2465
2016-04-09T06:20:42.534Z,671
2016-04-09T06:23:53.636Z,589
2016-04-09T06:27:07.020Z,8650
2016-04-09T06:30:20.919Z,9434
2016-04-09T06:33:34.554Z,518
2016-04-09T06:36:51.313Z,452
2016-04-09T06:40:03.477Z,1646
2016-04-09T06:43:18.563Z,12149
2016-04-09T06:46:39.448Z,12802
2016-04-09T06:49:43.723Z,2479
2016-04-09T06:52:56.746Z,384
2016-04-09T06:56:09.558Z,384
2016-04-09T06:59:31.456Z,384
2016-04-09T07:02:36.449Z,384
2016-04-09T07:05:49.771Z,384
2016-04-09T07:09:03.918Z,384
2016-04-09T07:12:17.761Z,384
2016-04-09T07:15:35.652Z,384
2016-04-09T07:18:40.209Z,510
2016-04-09T07:21:52.295Z,384
2016-04-09T07:25:06.849Z,384
2016-04-09T07:28:20.827Z,384
2016-04-09T07:31:39.212Z,384
2016-04-09T07:34:43.392Z,384
2016-04-09T07:37:58.306Z,384
2016-04-09T07:41:12.378Z,384
2016-04-09T07:44:33.604Z,384
2016-04-09T07:47:37.490Z,384
2016-04-09T07:50:49.608Z,384
2016-04-09T07:54:04.021Z,384
2016-04-09T07:57:16.624Z,384
2016-04-09T08:00:36.944Z,384
2016-04-09T08:03:40.017Z,384
2016-04-09T08:06:50.385Z,384
2016-04-09T08:10:04.659Z,384
2016-04-09T08:13:15.885Z,384
2016-04-09T08:16:35.878Z,384
2016-04-09T08:19:38.920Z,384
2016-04-09T08:22:52.319Z,384
2016-04-09T08:26:04.405Z,384
2016-04-09T08:29:16.397Z,384
2016-04-09T08:32:33.140Z,384
2016-04-09T08:35:36.210Z,384
2016-04-09T08:38:48.346Z,384
2016-04-09T08:42:01.917Z,384
2016-04-09T08:45:15.050Z,384
2016-04-09T08:48:34.839Z,384
2016-04-09T08:51:38.050Z,384
2016-04-09T08:54:51.952Z,384
2016-04-09T08:58:03.460Z,384
2016-04-09T09:01:14.998Z,384
2016-04-09T09:04:34.851Z,384
2016-04-09T09:07:39.046Z,384
2016-04-09T09:10:53.699Z,384
2016-04-09T09:14:08.519Z,384
2016-04-09T09:17:20.433Z,384
2016-04-09T09:20:40.520Z,384
2016-04-09T09:23:44.593Z,384
2016-04-09T09:26:58.882Z,455
2016-04-09T09:30:10.953Z,384
2016-04-09T09:33:25.101Z,384
2016-04-09T09:36:38.922Z,3245
2016-04-09T09:39:50.714Z,384
2016-04-09T09:43:02.863Z,384
2016-04-09T09:46:16.965Z,384
2016-04-09T09:49:37.133Z,384
2016-04-09T09:52:40.310Z,12484
2016-04-09T09:55:53.383Z,1641
2016-04-09T09:59:06.219Z,8562
2016-04-09T10:02:21.041Z,8420
2016-04-09T10:05:37.674Z,8333
2016-04-09T10:08:41.620Z,8065
2016-04-09T10:11:55.255Z,9059
2016-04-09T10:15:06.452Z,10008
2016-04-09T10:18:21.085Z,11529
2016-04-09T10:21:41.311Z,12179
2016-04-09T10:24:45.334Z,12794
2016-04-09T10:27:59.830Z,13844
2016-04-09T10:31:11.853Z,13543
2016-04-09T10:34:26.455Z,11637
2016-04-09T10:37:43.776Z,10537
2016-04-09T10:40:47.502Z,10045
2016-04-09T10:44:01.577Z,11449
2016-04-09T10:47:15.552Z,13317
2016-04-09T10:50:27.374Z,11424
2016-04-09T10:53:44.225Z,10793
2016-04-09T10:56:47.640Z,11152
2016-04-09T10:59:59.665Z,10801
2016-04-09T11:03:13.940Z,9135
2016-04-09T11:06:28.306Z,9737
2016-04-09T11:09:42.534Z,10668
2016-04-09T11:12:58.841Z,12140
2016-04-09T11:16:10.694Z,11211
2016-04-09T11:19:24.045Z,10726
2016-04-09T11:22:40.804Z,8634
2016-04-09T11:25:43.671Z,7960
2016-04-09T11:28:55.304Z,7121
2016-04-09T11:32:09.002Z,6879
2016-04-09T11:35:18.869Z,8162
2016-04-09T11:38:38.346Z,8860
2016-04-09T11:41:47.385Z,8673
2016-04-09T11:44:50.191Z,8780
2016-04-09T11:48:00.794Z,8299
2016-04-09T11:51:14.240Z,9063
2016-04-09T11:54:27.826Z,8116
2016-04-09T11:57:47.397Z,6707
2016-04-09T12:00:50.109Z,5429
2016-04-09T12:04:00.744Z,5796
2016-04-09T12:07:13.533Z,5091
2016-04-09T12:10:26.728Z,5233
2016-04-09T12:13:44.221Z,5744
2016-04-09T12:16:46.855Z,6138
2016-04-09T12:20:00.209Z,7031
2016-04-09T12:23:11.842Z,6612
2016-04-09T12:26:21.912Z,6256
2016-04-09T12:29:40.734Z,6014
2016-04-09T12:32:43.585Z,6044
2016-04-09T12:35:56.359Z,6511
2016-04-09T12:39:07.417Z,7423
2016-04-09T12:42:18.752Z,7294
2016-04-09T12:45:32.198Z,7365
2016-04-09T12:48:45.644Z,7505
2016-04-09T12:51:57.105Z,7646
2016-04-09T12:55:10.554Z,7718
2016-04-09T12:58:21.405Z,7659
2016-04-09T13:01:41.070Z,7451
2016-04-09T13:04:43.874Z,6476
2016-04-09T13:07:54.929Z,6420
2016-04-09T13:11:08.018Z,6840
2016-04-09T13:14:21.245Z,7638
2016-04-09T13:17:33.066Z,7579
2016-04-09T13:20:44.839Z,7610
2016-04-09T13:23:56.160Z,7670
2016-04-09T13:27:09.499Z,7808
2016-04-09T13:30:23.023Z,7214
2016-04-09T13:33:41.999Z,6935
2016-04-09T13:36:44.383Z,6323
2016-04-09T13:39:57.312Z,6029
2016-04-09T13:43:10.698Z,6391
2016-04-09T13:46:21.956Z,7009
2016-04-09T13:49:41.277Z,7390
2016-04-09T13:52:43.785Z,7676
2016-04-09T13:55:54.183Z,7279
2016-04-09T13:59:07.319Z,6656
2016-04-09T14:02:20.484Z,6154
2016-04-09T14:05:39.429Z,5587
2016-04-09T14:08:47.671Z,5480
2016-04-09T14:11:49.554Z,5666
2016-04-09T14:15:02.187Z,5463
2016-04-09T14:18:13.308Z,5111
2016-04-09T14:21:26.378Z,4695
2016-04-09T14:24:45.075Z,4560
2016-04-09T14:27:47.894Z,5048
2016-04-09T14:30:59.825Z,5497
2016-04-09T14:34:10.710Z,5784
2016-04-09T14:37:23.421Z,5851
2016-04-09T14:40:32.743Z,5492
2016-04-09T14:43:45.890Z,5394
2016-04-09T14:46:56.931Z,5496
2016-04-09T14:50:07.347Z,5579
2016-04-09T14:53:20.512Z,5498
2016-04-09T14:56:33.519Z,5353
2016-04-09T14:59:46.513Z,5354
2016-04-09T15:02:59.363Z,5504
2016-04-09T15:06:10.968Z,5586
2016-04-09T15:09:22.133Z,5495
2016-04-09T15:12:41.047Z,5398
2016-04-09T15:15:48.961Z,5385
2016-04-09T15:18:50.781Z,5304
2016-04-09T15:22:03.368Z,5175
2016-04-09T15:25:13.160Z,5067
2016-04-09T15:28:23.793Z,4869
2016-04-09T15:31:40.613Z,4747
2016-04-09T15:34:48.652Z,4783
2016-04-09T15:37:50.521Z,4821
2016-04-09T15:41:03.418Z,4653
2016-04-09T15:44:16.039Z,4155
2016-04-09T15:47:28.781Z,3682
2016-04-09T15:50:47.368Z,3305
2016-04-09T15:53:49.142Z,3351
2016-04-09T15:56:59.384Z,3284
2016-04-09T16:00:11.438Z,3174
2016-04-09T16:03:21.161Z,3154
2016-04-09T16:06:37.837Z,3137
2016-04-09T16:09:49.399Z,3090
2016-04-09T16:12:51.172Z,3061
2016-04-09T16:16:04.114Z,3052
2016-04-09T16:19:17.195Z,3005
2016-04-09T16:22:27.205Z,2916
2016-04-09T16:25:45.918Z,2802
2016-04-09T16:28:53.956Z,2669
2016-04-09T16:31:55.934Z,2555
2016-04-09T16:35:08.707Z,2453
2016-04-09T16:38:21.500Z,2344
2016-04-09T16:41:34.179Z,2224
2016-04-09T16:44:53.016Z,2051
2016-04-09T16:47:55.305Z,1901
2016-04-09T16:51:08.094Z,1773
2016-04-09T16:54:21.073Z,1651
2016-04-09T16:57:32.238Z,1475
2016-04-09T17:00:48.370Z,1307
2016-04-09T17:03:50.347Z,1149
2016-04-09T17:07:03.215Z,1002
2016-04-09T17:10:14.195Z,881
2016-04-09T17:13:27.078Z,779
2016-04-09T17:16:36.773Z,694
2016-04-09T17:19:49.390Z,616
2016-04-09T17:23:02.367Z,517
2016-04-09T17:26:15.191Z,475
2016-04-09T17:29:27.668Z,415
2016-04-09T17:32:47.535Z,351
2016-04-09T17:35:48.542Z,293
2016-04-09T17:39:00.505Z,235
2016-04-09T17:42:12.016Z,194
2016-04-09T17:45:22.195Z,159
2016-04-09T17:48:35.047Z,124
2016-04-09T17:51:54.024Z,96
2016-04-09T17:54:56.094Z,72
2016-04-09T17:58:07.212Z,54
2016-04-09T18:01:20.207Z,42
2016-04-09T18:04:31.778Z,21
2016-04-09T18:07:48.020Z,12
2016-04-09T18:10:49.935Z,12
2016-04-09T18:13:59.475Z,9
2016-04-09T18:17:12.342Z,5
2016-04-09T18:20:25.274Z,3
2016-04-09T18:23:38.486Z,2
2016-04-09T18:26:54.853Z,1
2016-04-09T18:29:56.939Z,1
2016-04-09T18:33:12.932Z,1
2016-04-09T18:36:19.832Z,1
2016-04-09T18:39:30.326Z,1
2016-04-09T18:42:49.490Z,1
2016-04-09T18:45:51.764Z,1
2016-04-09T18:49:04.678Z,1
2016-04-09T18:52:15.923Z,1
2016-04-09T18:55:28.931Z,1
2016-04-09T18:58:47.502Z,1
2016-04-09T19:01:55.807Z,2
2016-04-09T19:04:57.816Z,2
2016-04-09T19:08:10.807Z,2
2016-04-09T19:11:23.506Z,2
2016-04-09T19:14:36.045Z,2
2016-04-09T19:17:54.865Z,2
2016-04-09T19:20:56.858Z,2
2016-04-09T19:24:06.725Z,2
2016-04-09T19:27:19.517Z,2
2016-04-09T19:30:30.447Z,2
2016-04-09T19:33:40.049Z,2
2016-04-09T19:36:52.541Z,2
2016-04-09T19:40:05.002Z,2
2016-04-09T19:43:17.654Z,2
2016-04-09T19:46:30.537Z,2
2016-04-09T19:49:49.014Z,2
2016-04-09T19:52:56.850Z,2
2016-04-09T19:55:58.686Z,2
2016-04-09T19:59:08.258Z,2
2016-04-09T20:02:17.986Z,2
2016-04-09T20:05:30.588Z,2
2016-04-09T20:08:49.487Z,2
2016-04-09T20:11:58.449Z,2
2016-04-09T20:14:59.346Z,2
2016-04-09T20:18:12.073Z,2
2016-04-09T20:21:21.850Z,2
2016-04-09T20:24:32.420Z,3
2016-04-09T20:27:50.866Z,2
2016-04-09T20:30:52.608Z,3
2016-04-09T20:34:02.742Z,3
2016-04-09T20:37:15.530Z,3
2016-04-09T20:40:26.541Z,2
2016-04-09T20:43:39.285Z,2
2016-04-09T20:46:57.980Z,2
2016-04-09T20:49:59.690Z,2
2016-04-09T20:53:12.278Z,2
2016-04-09T20:56:23.366Z,2
2016-04-09T20:59:35.733Z,2
2016-04-09T21:02:52.913Z,2
2016-04-09T21:05:54.921Z,2
2016-04-09T21:09:07.601Z,2
2016-04-09T21:12:20.315Z,2
2016-04-09T21:15:33.323Z,2
2016-04-09T21:18:42.332Z,2
2016-04-09T21:21:53.043Z,2
2016-04-09T21:25:05.331Z,2
2016-04-09T21:28:15.074Z,2
2016-04-09T21:31:27.836Z,2
2016-04-09T21:34:40.655Z,2
2016-04-09T21:37:57.726Z,2
2016-04-09T21:40:59.499Z,2
2016-04-09T21:44:09.915Z,2
2016-04-09T21:47:22.253Z,2
2016-04-09T21:50:35.059Z,2
2016-04-09T21:53:53.801Z,2
2016-04-09T21:56:55.668Z,2
2016-04-09T22:00:08.207Z,2
2016-04-09T22:03:20.968Z,2
2016-04-09T22:06:33.648Z,2
2016-04-09T22:09:51.015Z,2
2016-04-09T22:12:58.977Z,2
2016-04-09T22:16:00.766Z,2
2016-04-09T22:19:13.555Z,2
2016-04-09T22:22:26.488Z,2
2016-04-09T22:25:39.528Z,2
2016-04-09T22:28:57.614Z,2
2016-04-09T22:31:59.450Z,3
2016-04-09T22:35:09.691Z,2
2016-04-09T22:38:20.278Z,2
2016-04-09T22:41:33.008Z,3
2016-04-09T22:44:52.046Z,2
2016-04-09T22:47:59.883Z,2
2016-04-09T22:51:01.813Z,2
2016-04-09T22:54:13.446Z,2
2016-04-09T22:57:26.113Z,2
2016-04-09T23:00:38.964Z,2
2016-04-09T23:03:57.567Z,2
2016-04-09T23:06:59.419Z,2
2016-04-09T23:10:11.940Z,2
2016-04-09T23:13:24.763Z,2
2016-04-09T23:16:34.067Z,2
2016-04-09T23:19:44.435Z,2
2016-04-09T23:23:01.537Z,2
2016-04-09T23:26:03.389Z,2
2016-04-09T23:29:15.741Z,2
2016-04-09T23:32:28.267Z,2
2016-04-09T23:35:40.150Z,2
2016-04-09T23:38:58.689Z,2
2016-04-09T23:42:01.244Z,2
2016-04-09T23:45:10.299Z,2
2016-04-09T23:48:19.292Z,2
2016-04-09T23:51:29.380Z,2
2016-04-09T23:54:41.795Z,2
2016-04-09T23:58:00.381Z,2
